createdAt,value
2023-01-17T00:03:06.956Z,1.71
2023-01-17T00:08:43.655Z,1.78
2023-01-17T06:11:08.715Z,1.02
2023-01-17T06:16:10.416Z,0.90
2023-01-17T06:21:12.098Z,1.10
2023-01-17T06:26:13.949Z,1.08
2023-01-17T06:31:15.625Z,1.09
2023-01-17T06:36:17.533Z,0.96
2023-01-17T06:41:19.161Z,1.04
2023-01-17T06:46:20.939Z,1.08
2023-01-17T06:51:23.700Z,0.95
2023-01-17T06:56:25.332Z,0.81
2023-01-17T07:01:27.057Z,1.10
2023-01-17T07:06:29.053Z,1.15
2023-01-17T07:11:31.555Z,1.27
2023-01-17T07:16:34.217Z,1.13
2023-01-17T07:21:36.032Z,0.74
2023-01-17T07:26:38.169Z,1.27
2023-01-17T07:31:40.527Z,1.22
2023-01-17T07:36:42.233Z,1.53
2023-01-17T07:41:43.912Z,1.70
2023-01-17T07:46:45.546Z,1.59
2023-01-17T07:51:47.683Z,1.74
2023-01-17T07:56:49.419Z,1.72
2023-01-17T08:01:51.168Z,1.92
2023-01-17T08:06:55.017Z,1.92
2023-01-17T08:11:56.711Z,1.78
2023-01-17T08:17:11.309Z,1.84
2023-01-17T08:22:12.951Z,1.87
2023-01-17T08:27:15.295Z,1.61
2023-01-17T08:32:17.058Z,1.75
2023-01-17T08:37:18.912Z,1.60
2023-01-17T08:42:22.622Z,1.38
2023-01-17T08:47:24.401Z,1.57
2023-01-17T08:52:29.633Z,1.62
2023-01-17T08:57:32.249Z,1.90
2023-01-17T09:02:34.234Z,1.91
2023-01-17T09:07:36.100Z,1.78
2023-01-17T09:12:39.127Z,1.78
2023-01-17T09:17:40.830Z,1.96
2023-01-17T09:22:42.486Z,1.99
2023-01-17T09:27:47.445Z,1.93
2023-01-17T09:32:53.580Z,2.21
2023-01-17T09:37:57.188Z,2.29
2023-01-17T09:43:07.294Z,2.48
2023-01-17T09:48:18.011Z,2.63
2023-01-17T09:53:23.371Z,2.82
2023-01-17T09:58:53.023Z,2.91
2023-01-17T10:04:26.443Z,3.01
2023-01-17T10:09:40.257Z,3.09
2023-01-17T10:15:10.380Z,3.24
2023-01-17T10:20:15.269Z,3.38
2023-01-17T10:25:38.095Z,3.41
2023-01-17T10:30:54.781Z,3.22
2023-01-17T10:35:59.811Z,3.46
2023-01-17T10:41:22.993Z,3.66
2023-01-17T10:46:35.640Z,3.44
2023-01-17T10:52:00.575Z,3.67
2023-01-17T10:57:02.487Z,4.00
2023-01-17T11:02:15.169Z,4.04
2023-01-17T11:07:20.630Z,4.25
2023-01-17T11:12:45.000Z,4.33
2023-01-17T11:18:51.996Z,4.50
2023-01-17T11:23:58.898Z,4.32
2023-01-17T11:29:32.243Z,4.16
2023-01-17T11:34:33.937Z,4.53
2023-01-17T11:39:36.683Z,4.46
2023-01-17T11:44:38.357Z,4.38
2023-01-17T11:49:41.776Z,4.42
2023-01-17T11:54:46.727Z,4.53
2023-01-17T11:59:49.164Z,4.47
2023-01-17T12:05:00.668Z,4.61
2023-01-17T12:10:16.328Z,4.41
2023-01-17T12:15:56.231Z,4.44
2023-01-17T12:21:20.781Z,4.53
2023-01-17T12:26:23.954Z,4.41
2023-01-17T12:31:38.879Z,4.45
2023-01-17T12:36:56.553Z,4.39
2023-01-17T12:42:03.356Z,4.47
2023-01-17T12:47:06.407Z,4.39
2023-01-17T12:52:16.900Z,4.42
2023-01-17T12:57:26.555Z,4.47
2023-01-17T13:02:49.815Z,4.53
2023-01-17T13:08:20.013Z,4.39
2023-01-17T13:13:30.303Z,4.37
2023-01-17T13:18:33.336Z,4.28
2023-01-17T13:24:03.871Z,4.26
2023-01-17T13:29:28.906Z,4.24
2023-01-17T13:34:33.469Z,4.15
2023-01-17T13:40:19.367Z,4.17
2023-01-17T13:45:24.137Z,4.15
2023-01-17T13:50:56.033Z,4.17
2023-01-17T13:56:14.867Z,4.07
2023-01-17T14:01:45.637Z,4.09
2023-01-17T14:06:56.696Z,4.15
2023-01-17T14:12:07.228Z,4.15
2023-01-17T14:17:25.770Z,4.07
2023-01-17T14:22:30.137Z,4.15
2023-01-17T14:27:39.281Z,4.05
2023-01-17T14:32:41.123Z,4.04
2023-01-17T14:37:48.301Z,4.05
2023-01-17T14:42:59.804Z,4.05
2023-01-17T14:48:06.044Z,4.04
2023-01-17T14:53:13.419Z,4.02
2023-01-17T14:58:27.074Z,3.92
2023-01-17T15:03:33.220Z,3.94
2023-01-17T15:08:36.830Z,3.78
2023-01-17T15:13:44.991Z,3.91
2023-01-17T15:18:47.724Z,3.78
2023-01-17T15:23:56.380Z,3.68
2023-01-17T15:29:12.510Z,3.70
2023-01-17T15:34:23.519Z,3.71
2023-01-17T15:39:30.487Z,3.64
2023-01-17T15:44:49.694Z,3.67
2023-01-17T15:49:53.100Z,3.59
2023-01-17T15:55:22.448Z,3.38
2023-01-17T16:00:39.145Z,3.21
2023-01-17T16:05:43.637Z,3.18
2023-01-17T16:10:45.530Z,3.02
2023-01-17T16:15:47.633Z,2.84
2023-01-17T16:20:59.843Z,2.90
2023-01-17T16:26:01.674Z,2.90
2023-01-17T16:31:03.596Z,2.94
2023-01-17T16:36:05.996Z,2.98
2023-01-17T16:41:08.060Z,3.02
2023-01-17T16:46:11.591Z,3.07
2023-01-17T16:51:13.356Z,2.95
2023-01-17T16:56:17.264Z,2.86
2023-01-17T17:01:21.312Z,2.77
2023-01-17T17:06:23.165Z,2.79
2023-01-17T17:11:24.976Z,2.67
2023-01-17T17:16:33.003Z,2.79
2023-01-17T17:21:37.670Z,2.74
2023-01-17T17:26:41.269Z,2.78
2023-01-17T17:31:43.488Z,2.84
2023-01-17T17:36:45.629Z,2.78
2023-01-17T17:41:47.922Z,2.76
2023-01-17T17:46:51.556Z,3.06
2023-01-17T17:51:53.373Z,3.13
2023-01-17T17:56:56.150Z,3.16
2023-01-17T18:01:59.798Z,3.14
2023-01-17T18:07:01.508Z,3.23
2023-01-17T18:12:03.428Z,3.21
2023-01-17T18:17:05.206Z,3.24
2023-01-17T18:22:06.908Z,3.28
2023-01-17T18:27:10.524Z,3.27
2023-01-17T18:32:13.332Z,3.29
2023-01-17T18:37:15.151Z,3.08
2023-01-17T18:42:16.907Z,3.34
2023-01-17T18:47:18.587Z,3.50
2023-01-17T18:52:20.932Z,3.36
2023-01-17T18:57:24.167Z,3.52
2023-01-17T19:02:25.849Z,3.50
2023-01-17T19:07:29.744Z,3.46
2023-01-17T19:12:31.330Z,3.53
2023-01-17T19:17:32.972Z,3.34
2023-01-17T19:22:34.680Z,3.41
2023-01-17T19:27:36.485Z,3.52
2023-01-17T19:32:38.196Z,3.42
2023-01-17T19:37:44.228Z,3.22
2023-01-17T19:42:46.667Z,3.45
2023-01-17T19:47:48.357Z,3.60
2023-01-17T19:52:51.445Z,3.58
2023-01-17T19:57:54.887Z,3.57
2023-01-17T20:02:56.837Z,3.69
2023-01-17T20:07:58.949Z,3.61
2023-01-17T20:13:01.067Z,3.52
2023-01-17T20:18:02.732Z,3.61
2023-01-17T20:23:06.420Z,3.56
2023-01-17T20:28:08.096Z,3.53
2023-01-17T20:33:14.943Z,3.50
2023-01-17T20:38:16.708Z,3.47
2023-01-17T20:43:18.570Z,3.53
2023-01-17T20:48:21.883Z,3.50
2023-01-17T20:53:23.710Z,3.41
2023-01-17T20:58:25.535Z,3.36
